Muscotah, KS (66058)

11:01 PM CDT on October 19, 2019 (GMT -0500)
Wehking | | Change Station
Active Advisory: Flood Warning

Elev 1105 ft 39.56 °N, 95.36 °W | Updated 9 seconds ago

Clear
Clear
52.2 °F
Feels Like 52.2 °F
N
0
Wind Variable Wind from East
Gusts 0.0 mph

Today
High -- | Low -- °F
--% Chance of Precip.
Yesterday
High -- | Low -- °F
Precip. -- in
Pressure 29.85 in
Visibility 10.0 miles
Clouds Clear
Dew Point 48 °F
Humidity 85%
Rainfall 0.00 in
Snow Depth Not available.
7:36 AM 6:37 PM
Waning Gibbous, 65% visible
METAR KTOP 200353Z AUTO 00000KT 10SM CLR 09/07 A2985 RMK AO2 SLP106 T00890072
Pressure 29.85 in
Visibility 10.0 miles
Clouds Clear
Dew Point 48 °F
Humidity 85%
Rainfall 0.00 in
Snow Depth Not available.
7:36 AM 6:37 PM
Waning Gibbous, 65% visible
METAR KTOP 200353Z AUTO 00000KT 10SM CLR 09/07 A2985 RMK AO2 SLP106 T00890072

Get Your Daily Forecast Email!

Thanks for signing up!

Be on the lookout for a verification email in your inbox.

You'll start receiving severe weather alerts in your inbox..

×

10-Day Weather Forecast

Almanac

Astronomy

Oct. 19, 2019 Rise Set
Actual Time
Civil Twilight
Nautical Twilight
Astronomical Twilight
Moon
Length of Visible Light
Length of Day
Tomorrow will be .
, % of the Moon is Illuminated

Today's Extremes

State Highs State Lows

Community

WunderPhotos

Category 6

Welcome to Category 6. This is the collective home for Weather Underground's featured writeups by Dr. Jeff Masters (right), Bob Henson (left), Chris Burt, and other regular contributors.

Nearby

Air Quality

  Air Quality AQ Index Pollutant
Not available.

Snow Depth

Station Depth Elevation

Earthquake Activity

City Distance Mag. Time & Date
Minimum magnitude displayed is 2.5.

Coastal Water Temperatures

Place Temperature

Stations

Nearby Weather Stations

Station Location Temp. Windchill Dew Point Humidity Wind Precip. Elev Updated Type
                   

Watches & Warnings

Flood Warning
Issued: 9:43 AM CDT Oct. 19, 2019 – National Weather Service

The Flood Warning continues for
the Missouri River at Atchison.
* Until late Monday night.
* At 9:30 am Saturday the stage was 22.5 feet.
* Flood stage is 22.0 feet.
* Minor flooding is occurring and minor flooding is forecast.
* Forecast... the river will continue to fall to below flood stage by
early Monday morning.
* At 22.0 feet... low-lying areas on the Missouri side of the river
begin to flood.

                       Latest
location fs stage day/time forecast

Missouri River
Atchison 22 22.5 Sat 09 am 22.5 this afternoon


lat... Lon 3970 9505 3964 9488 3942 9493 3942 9508 3958 9516